createdAt,value
2023-04-19T00:00:08.410Z,94.28
2023-04-19T00:02:38.137Z,95.53
2023-04-19T00:05:09.328Z,95.74
2023-04-19T00:07:37.143Z,97.05
2023-04-19T00:10:05.925Z,96.93
2023-04-19T00:12:33.671Z,95.82
2023-04-19T00:15:01.585Z,95.81
2023-04-19T00:17:29.707Z,97.00
2023-04-19T00:19:58.029Z,95.70
2023-04-19T00:22:27.286Z,95.21
2023-04-19T00:24:55.212Z,95.74
2023-04-19T00:27:23.493Z,96.16
2023-04-19T00:29:51.334Z,96.75
2023-04-19T00:32:19.034Z,96.97
2023-04-19T00:34:47.209Z,95.87
2023-04-19T00:37:14.999Z,96.87
2023-04-19T00:39:44.232Z,95.16
2023-04-19T00:42:12.118Z,94.50
2023-04-19T00:44:40.311Z,96.09
2023-04-19T00:47:08.179Z,96.56
2023-04-19T00:49:35.964Z,97.19
2023-04-19T00:52:04.140Z,97.44
2023-04-19T00:54:32.479Z,97.04
2023-04-19T00:57:01.557Z,96.97
2023-04-19T00:59:30.229Z,97.17
2023-04-19T01:01:58.504Z,96.89
2023-04-19T01:04:26.837Z,96.87
2023-04-19T01:06:54.964Z,97.14
2023-04-19T01:09:22.996Z,95.52
2023-04-19T01:11:51.788Z,95.99
2023-04-19T01:14:20.924Z,96.49
2023-04-19T01:16:49.210Z,95.85
2023-04-19T01:19:17.047Z,94.93
2023-04-19T01:21:46.478Z,96.29
2023-04-19T01:24:16.161Z,95.56
2023-04-19T01:26:43.977Z,96.21
2023-04-19T01:29:12.076Z,95.61
2023-04-19T01:31:39.854Z,94.92
2023-04-19T01:34:07.698Z,97.00
2023-04-19T01:36:35.513Z,97.63
2023-04-19T01:39:03.564Z,98.03
2023-04-19T01:41:32.805Z,97.80
2023-04-19T01:44:01.990Z,97.98
2023-04-19T01:46:30.222Z,98.82
2023-04-19T01:48:58.424Z,97.43
2023-04-19T01:51:26.870Z,96.58
2023-04-19T01:53:55.521Z,98.48
2023-04-19T01:56:24.881Z,98.17
2023-04-19T01:58:54.619Z,98.49
2023-04-19T02:01:22.792Z,98.59
2023-04-19T02:03:52.960Z,99.09
2023-04-19T02:06:22.362Z,99.19
2023-04-19T02:08:52.154Z,98.26
2023-04-19T02:11:20.747Z,99.25
2023-04-19T02:13:48.901Z,98.42
2023-04-19T02:16:18.331Z,99.19
2023-04-19T02:18:46.731Z,98.03
2023-04-19T02:21:15.240Z,97.85
2023-04-19T02:23:43.498Z,98.78
2023-04-19T02:26:12.983Z,98.40
2023-04-19T02:28:44.192Z,98.64
2023-04-19T02:31:13.841Z,99.81
2023-04-19T02:33:43.099Z,99.74
2023-04-19T02:36:12.123Z,99.42
2023-04-19T02:38:39.866Z,100.00
2023-04-19T02:41:07.660Z,100.00
2023-04-19T02:43:35.330Z,100.00
2023-04-19T02:46:03.202Z,100.00
2023-04-19T02:48:31.357Z,100.00
2023-04-19T02:51:00.835Z,100.00
2023-04-19T02:53:28.957Z,100.00
2023-04-19T02:55:57.393Z,100.00
2023-04-19T02:58:26.441Z,100.00
2023-04-19T03:01:06.946Z,99.58
2023-04-19T03:03:34.958Z,99.50
2023-04-19T03:06:04.742Z,99.29
2023-04-19T03:08:34.018Z,99.54
2023-04-19T03:11:02.022Z,99.36
2023-04-19T03:13:32.272Z,99.88
2023-04-19T03:16:00.920Z,99.50
2023-04-19T03:18:31.618Z,100.00
2023-04-19T03:21:01.605Z,100.00
2023-04-19T03:23:36.846Z,99.87
2023-04-19T03:26:05.302Z,100.00
2023-04-19T03:28:41.258Z,100.00
2023-04-19T03:31:11.737Z,100.00
2023-04-19T03:33:41.063Z,100.00
2023-04-19T03:36:10.350Z,100.00
2023-04-19T03:38:41.317Z,100.00
2023-04-19T03:41:20.380Z,100.00
2023-04-19T03:43:52.180Z,100.00
2023-04-19T03:46:20.412Z,100.00
2023-04-19T03:48:49.207Z,100.00
2023-04-19T03:51:17.111Z,100.00
2023-04-19T03:53:46.941Z,100.00
2023-04-19T03:56:18.727Z,100.00
2023-04-19T03:58:47.460Z,100.00
2023-04-19T04:01:19.669Z,100.00
2023-04-19T04:03:47.774Z,100.00
2023-04-19T04:06:16.594Z,100.00
2023-04-19T04:08:44.650Z,100.00
2023-04-19T04:11:14.060Z,100.00
2023-04-19T04:13:43.194Z,100.00
2023-04-19T04:16:19.151Z,100.00
2023-04-19T04:18:47.668Z,100.00
2023-04-19T04:21:16.780Z,100.00
2023-04-19T04:23:50.099Z,100.00
2023-04-19T04:26:34.040Z,100.00
2023-04-19T04:29:19.007Z,100.00
2023-04-19T04:31:47.655Z,100.00
2023-04-19T04:34:18.884Z,100.00
2023-04-19T04:36:53.490Z,100.00
2023-04-19T04:39:24.303Z,100.00
2023-04-19T04:41:54.016Z,100.00
2023-04-19T04:44:22.493Z,100.00
2023-04-19T04:46:50.429Z,100.00
2023-04-19T04:49:24.397Z,100.00
2023-04-19T04:51:52.345Z,100.00
2023-04-19T04:54:21.777Z,100.00
2023-04-19T04:56:50.292Z,100.00
2023-04-19T04:59:19.562Z,100.00
2023-04-19T05:01:50.557Z,100.00
2023-04-19T05:04:19.081Z,100.00
2023-04-19T05:06:47.041Z,100.00
2023-04-19T05:09:21.784Z,100.00
2023-04-19T05:11:49.890Z,100.00
2023-04-19T05:14:19.297Z,100.00
2023-04-19T05:16:47.274Z,100.00
2023-04-19T05:19:15.285Z,100.00
2023-04-19T05:21:49.485Z,100.00
2023-04-19T05:24:18.729Z,100.00
2023-04-19T05:26:47.581Z,100.00
2023-04-19T05:29:16.055Z,100.00
2023-04-19T05:31:51.600Z,100.00
2023-04-19T05:34:24.339Z,100.00
2023-04-19T05:36:53.843Z,100.00
2023-04-19T05:39:22.008Z,100.00
2023-04-19T05:41:50.116Z,100.00
2023-04-19T05:44:18.805Z,100.00
2023-04-19T05:46:47.535Z,100.00
2023-04-19T05:49:22.569Z,100.00
2023-04-19T05:52:06.593Z,100.00
2023-04-19T05:54:45.068Z,100.00
2023-04-19T05:57:13.247Z,100.00
2023-04-19T05:59:41.431Z,100.00
2023-04-19T06:02:10.846Z,100.00
2023-04-19T06:04:40.349Z,100.00
2023-04-19T06:07:17.783Z,100.00
2023-04-19T06:09:56.285Z,100.00
2023-04-19T06:12:24.248Z,100.00
2023-04-19T06:14:53.930Z,100.00
2023-04-19T06:17:25.725Z,100.00
2023-04-19T06:19:57.451Z,100.00
2023-04-19T06:22:26.138Z,100.00
2023-04-19T06:24:53.853Z,100.00
2023-04-19T06:27:21.762Z,100.00
2023-04-19T06:29:51.241Z,100.00
2023-04-19T06:32:19.782Z,100.00
2023-04-19T06:34:47.831Z,100.00
2023-04-19T06:37:17.180Z,100.00
2023-04-19T06:39:44.829Z,100.00
2023-04-19T06:42:12.833Z,100.00
2023-04-19T06:44:40.947Z,100.00
2023-04-19T06:47:08.756Z,100.00
2023-04-19T06:49:36.482Z,100.00
2023-04-19T06:52:04.254Z,100.00
2023-04-19T06:54:33.469Z,100.00
2023-04-19T06:57:02.384Z,100.00
2023-04-19T06:59:32.380Z,100.00
2023-04-19T07:02:00.239Z,100.00
2023-04-19T07:04:28.370Z,100.00
2023-04-19T07:06:56.719Z,100.00
2023-04-19T07:09:24.416Z,100.00
2023-04-19T07:11:53.861Z,100.00
2023-04-19T07:14:22.005Z,100.00
2023-04-19T07:16:50.971Z,100.00
2023-04-19T07:19:20.592Z,99.28
2023-04-19T07:21:48.817Z,95.15
2023-04-19T07:24:17.405Z,94.05
2023-04-19T07:26:45.589Z,91.41
2023-04-19T07:29:15.046Z,91.05
2023-04-19T07:31:43.335Z,92.24
2023-04-19T07:34:11.009Z,94.31
2023-04-19T07:36:39.070Z,97.05
2023-04-19T07:39:06.858Z,98.62
2023-04-19T07:41:35.973Z,98.41
2023-04-19T07:44:04.008Z,97.41
2023-04-19T07:46:33.148Z,99.32
2023-04-19T07:49:00.995Z,98.24
2023-04-19T07:51:29.311Z,100.00
2023-04-19T07:53:56.970Z,99.52
2023-04-19T07:56:26.396Z,100.00
2023-04-19T07:59:06.949Z,100.00
2023-04-19T08:01:38.309Z,100.00
2023-04-19T08:04:06.890Z,99.48
2023-04-19T08:06:34.922Z,99.07
2023-04-19T08:09:03.030Z,100.00
2023-04-19T08:11:31.230Z,100.00
2023-04-19T08:14:09.294Z,98.14
2023-04-19T08:17:19.051Z,98.61
2023-04-19T08:19:29.000Z,98.97
2023-04-19T08:21:57.495Z,100.00
2023-04-19T08:24:25.361Z,99.66
2023-04-19T08:26:54.770Z,98.47
2023-04-19T08:29:23.177Z,98.20
2023-04-19T08:31:52.843Z,98.96
2023-04-19T08:34:21.082Z,99.10
2023-04-19T08:36:55.812Z,96.31
2023-04-19T08:39:33.124Z,95.91
2023-04-19T08:42:08.667Z,95.82
2023-04-19T08:44:54.329Z,95.40
2023-04-19T08:47:34.313Z,95.88
2023-04-19T08:50:20.265Z,94.33
2023-04-19T08:52:58.811Z,92.50
2023-04-19T08:55:29.964Z,94.09
2023-04-19T08:57:58.029Z,93.16
2023-04-19T09:00:26.091Z,90.67
2023-04-19T09:02:56.427Z,89.73
2023-04-19T09:05:24.710Z,89.85
2023-04-19T09:07:52.969Z,87.30
2023-04-19T09:10:22.886Z,87.96
2023-04-19T09:13:04.385Z,87.28
2023-04-19T09:15:40.069Z,85.91
2023-04-19T09:18:10.710Z,86.09
2023-04-19T09:20:40.223Z,86.67
2023-04-19T09:23:12.395Z,86.67
2023-04-19T09:25:59.221Z,86.31
2023-04-19T09:28:29.661Z,88.11
2023-04-19T09:31:10.594Z,88.56
2023-04-19T09:33:45.637Z,88.00
2023-04-19T09:36:28.039Z,87.88
2023-04-19T09:38:56.079Z,89.19
2023-04-19T09:41:24.010Z,89.02
2023-04-19T09:46:33.611Z,87.63
2023-04-19T09:49:27.866Z,86.25
2023-04-19T09:52:10.385Z,85.11
2023-04-19T09:54:39.045Z,84.57
2023-04-19T09:57:07.198Z,85.25
2023-04-19T09:59:35.513Z,83.34
2023-04-19T10:02:06.641Z,80.51
2023-04-19T10:04:57.100Z,80.32
2023-04-19T10:07:30.543Z,81.03
2023-04-19T10:15:05.425Z,83.80
2023-04-19T10:17:33.657Z,81.91
2023-04-19T10:20:08.166Z,83.07
2023-04-19T10:22:37.689Z,83.33
2023-04-19T10:25:10.649Z,80.32
2023-04-19T10:27:38.354Z,79.60
2023-04-19T10:30:12.603Z,78.03
2023-04-19T10:32:41.852Z,76.41
2023-04-19T10:35:18.178Z,76.17
2023-04-19T10:38:04.482Z,78.51
2023-04-19T10:41:01.057Z,72.68
2023-04-19T10:43:30.200Z,73.39
2023-04-19T10:46:01.513Z,71.14
2023-04-19T10:48:38.150Z,72.76
2023-04-19T10:51:14.506Z,72.42
2023-04-19T10:53:57.938Z,72.65
2023-04-19T10:57:02.125Z,74.08
2023-04-19T10:59:34.289Z,74.32
2023-04-19T11:02:03.360Z,75.04
2023-04-19T11:05:01.066Z,74.07
2023-04-19T11:07:57.646Z,70.52
2023-04-19T11:10:31.911Z,71.35
2023-04-19T11:12:59.805Z,71.91
2023-04-19T11:15:27.671Z,69.49
2023-04-19T11:18:11.193Z,69.08
2023-04-19T11:20:43.730Z,69.48
2023-04-19T11:23:18.839Z,69.32
2023-04-19T11:25:48.471Z,67.84
2023-04-19T11:28:18.285Z,68.39
2023-04-19T11:30:46.940Z,66.56
2023-04-19T11:33:16.411Z,65.66
2023-04-19T11:35:44.682Z,66.75
2023-04-19T11:38:14.906Z,64.53
2023-04-19T11:40:44.252Z,61.31
2023-04-19T11:43:12.079Z,61.08
2023-04-19T11:45:40.481Z,58.51
2023-04-19T11:48:15.148Z,60.55
2023-04-19T11:50:44.264Z,56.89
2023-04-19T11:53:14.333Z,58.18
2023-04-19T11:55:52.449Z,57.97
2023-04-19T11:58:29.252Z,58.46
2023-04-19T12:00:58.475Z,57.66
2023-04-19T12:03:26.969Z,57.68
2023-04-19T12:05:56.583Z,58.16
2023-04-19T12:08:32.901Z,57.71
2023-04-19T12:11:03.351Z,55.42
2023-04-19T12:13:32.049Z,55.65
2023-04-19T12:16:00.773Z,53.57
2023-04-19T12:18:28.687Z,56.37
2023-04-19T12:20:58.285Z,55.41
2023-04-19T12:23:27.829Z,55.88
2023-04-19T12:25:55.693Z,55.67
2023-04-19T12:28:25.256Z,56.08
2023-04-19T12:30:53.470Z,55.71
2023-04-19T12:33:24.067Z,55.18
2023-04-19T12:35:55.290Z,54.22
2023-04-19T12:38:24.363Z,52.42
2023-04-19T12:40:52.610Z,50.15
2023-04-19T12:43:21.159Z,52.76
2023-04-19T12:45:50.568Z,50.95
2023-04-19T12:48:19.305Z,53.10
2023-04-19T12:50:47.764Z,52.25
2023-04-19T12:53:15.712Z,50.07
2023-04-19T12:55:47.443Z,51.65
2023-04-19T12:58:15.906Z,50.08
2023-04-19T13:00:43.810Z,49.43
2023-04-19T13:03:13.576Z,47.84
2023-04-19T13:05:41.715Z,50.54
2023-04-19T13:08:10.318Z,47.95
2023-04-19T13:10:38.509Z,49.03
2023-04-19T13:13:06.780Z,49.74
2023-04-19T13:15:34.981Z,47.99
2023-04-19T13:18:02.985Z,46.72
2023-04-19T13:20:32.355Z,46.30
2023-04-19T13:23:00.585Z,46.89
2023-04-19T13:25:29.474Z,47.75
2023-04-19T13:27:58.258Z,48.25
2023-04-19T13:30:28.399Z,47.95
2023-04-19T13:32:56.826Z,46.78
2023-04-19T13:35:25.271Z,46.28
2023-04-19T13:37:54.875Z,42.34
2023-04-19T13:40:22.764Z,43.42
2023-04-19T13:42:51.040Z,44.16
2023-04-19T13:45:19.000Z,41.40
2023-04-19T13:47:47.183Z,40.13
2023-04-19T13:50:15.373Z,40.22
2023-04-19T13:52:43.302Z,41.56
2023-04-19T13:55:12.930Z,40.87
2023-04-19T13:57:40.802Z,41.26
2023-04-19T14:00:09.892Z,41.39
2023-04-19T14:02:37.887Z,40.70
2023-04-19T14:05:06.538Z,38.93
2023-04-19T14:07:34.408Z,39.45
2023-04-19T14:10:02.857Z,37.39
2023-04-19T14:12:32.623Z,37.46
2023-04-19T14:15:00.702Z,37.90
2023-04-19T14:17:28.878Z,37.03
2023-04-19T14:19:57.852Z,38.59
2023-04-19T14:22:25.992Z,37.94
2023-04-19T14:24:54.287Z,37.68
2023-04-19T14:27:22.954Z,36.77
2023-04-19T14:29:52.074Z,36.22
2023-04-19T14:32:25.112Z,37.65
2023-04-19T14:34:56.372Z,37.69
2023-04-19T14:37:25.597Z,37.07
2023-04-19T14:39:54.162Z,36.77
2023-04-19T14:42:23.286Z,37.04
2023-04-19T14:44:53.538Z,37.70
2023-04-19T14:47:22.766Z,35.99
2023-04-19T14:49:51.280Z,36.82
2023-04-19T14:52:19.236Z,37.28
2023-04-19T14:54:47.223Z,38.70
2023-04-19T14:57:15.534Z,38.83
2023-04-19T14:59:43.458Z,39.29
2023-04-19T15:02:13.627Z,38.32
2023-04-19T15:04:42.365Z,39.32
2023-04-19T15:07:11.126Z,38.08
2023-04-19T15:09:40.279Z,38.59
2023-04-19T15:12:08.365Z,37.70
2023-04-19T15:14:36.932Z,38.04
2023-04-19T15:17:04.818Z,39.44
2023-04-19T15:19:34.855Z,38.75
2023-04-19T15:22:04.154Z,37.89
2023-04-19T15:24:33.591Z,38.13
2023-04-19T15:27:01.821Z,36.89
2023-04-19T15:29:29.717Z,36.16
2023-04-19T15:31:57.996Z,36.38
2023-04-19T15:34:25.905Z,36.00
2023-04-19T15:36:55.893Z,37.07
2023-04-19T15:39:23.945Z,37.22
2023-04-19T15:41:52.105Z,38.52
2023-04-19T15:44:20.125Z,38.99
2023-04-19T15:46:48.017Z,39.06
2023-04-19T15:49:16.739Z,38.60
2023-04-19T15:51:47.849Z,37.74
2023-04-19T15:54:17.317Z,38.59
2023-04-19T15:56:45.306Z,38.43
2023-04-19T15:59:13.255Z,38.90
2023-04-19T16:01:41.634Z,38.46
2023-04-19T16:04:10.230Z,39.03
2023-04-19T16:06:38.446Z,38.60
2023-04-19T16:09:08.120Z,38.84
2023-04-19T16:11:39.042Z,39.15
2023-04-19T16:14:07.219Z,38.56
2023-04-19T16:16:35.416Z,38.25
2023-04-19T16:19:03.445Z,39.51
2023-04-19T16:21:31.663Z,39.54
2023-04-19T16:24:00.720Z,39.29
2023-04-19T16:26:28.598Z,39.39
2023-04-19T16:28:59.372Z,38.51
2023-04-19T16:31:27.598Z,39.58
2023-04-19T16:33:57.848Z,39.90
2023-04-19T16:36:25.686Z,38.63
2023-04-19T16:38:53.876Z,39.92
2023-04-19T16:41:21.937Z,39.44
2023-04-19T16:43:49.940Z,39.61
2023-04-19T16:46:19.112Z,41.00
2023-04-19T16:48:46.967Z,39.27
2023-04-19T16:51:14.769Z,39.83
2023-04-19T16:53:43.485Z,40.75
2023-04-19T16:56:11.321Z,42.39
2023-04-19T16:58:38.959Z,42.07
2023-04-19T17:01:09.093Z,41.88
2023-04-19T17:03:38.882Z,40.61
2023-04-19T17:06:07.270Z,40.82
2023-04-19T17:08:35.235Z,41.89
2023-04-19T17:11:03.003Z,40.20
2023-04-19T17:13:31.218Z,40.37
2023-04-19T17:15:59.076Z,40.97
2023-04-19T17:18:28.115Z,42.03
2023-04-19T17:20:58.791Z,42.03
2023-04-19T17:23:26.860Z,41.88
2023-04-19T17:25:55.694Z,42.93
2023-04-19T17:28:23.418Z,44.16
2023-04-19T17:30:51.334Z,45.26
2023-04-19T17:33:19.125Z,44.82
2023-04-19T17:35:47.611Z,44.99
2023-04-19T17:38:16.872Z,46.62
2023-04-19T17:40:46.247Z,45.90
2023-04-19T17:43:15.145Z,46.98
2023-04-19T17:45:43.011Z,46.92
2023-04-19T17:48:10.999Z,47.03
2023-04-19T17:50:38.861Z,47.19
2023-04-19T17:53:06.692Z,46.45
2023-04-19T17:55:36.427Z,47.71
2023-04-19T17:58:04.381Z,47.37
2023-04-19T18:00:32.121Z,46.94
2023-04-19T18:03:00.761Z,48.05
2023-04-19T18:05:29.184Z,48.02
2023-04-19T18:07:57.354Z,47.89
2023-04-19T18:10:25.647Z,48.40
2023-04-19T18:12:54.948Z,48.89
2023-04-19T18:15:23.484Z,48.99
2023-04-19T18:17:51.419Z,49.45
2023-04-19T18:20:21.060Z,50.35
2023-04-19T18:22:49.805Z,50.52
2023-04-19T18:25:17.780Z,50.27
2023-04-19T18:27:46.168Z,49.24
2023-04-19T18:30:16.239Z,49.50
2023-04-19T18:32:44.432Z,49.47
2023-04-19T18:35:12.273Z,50.26
2023-04-19T18:37:40.259Z,50.97
2023-04-19T18:40:09.346Z,50.57
2023-04-19T18:42:37.062Z,52.56
2023-04-19T18:45:06.058Z,53.78
2023-04-19T18:47:35.766Z,53.37
2023-04-19T18:50:06.491Z,53.68
2023-04-19T18:52:36.264Z,53.51
2023-04-19T18:55:05.638Z,55.19
2023-04-19T18:57:35.046Z,55.54
2023-04-19T19:00:05.503Z,54.54
2023-04-19T19:02:37.141Z,54.86
2023-04-19T19:05:08.314Z,54.23
2023-04-19T19:07:38.079Z,55.12
2023-04-19T19:10:19.500Z,54.30
2023-04-19T19:12:51.278Z,54.75
2023-04-19T19:15:19.311Z,55.25
2023-04-19T19:17:50.734Z,54.35
2023-04-19T19:20:20.509Z,54.44
2023-04-19T19:22:48.866Z,54.22
2023-04-19T19:25:16.915Z,54.65
2023-04-19T19:28:03.015Z,54.40
2023-04-19T19:30:34.032Z,54.89
2023-04-19T19:33:04.815Z,55.15
2023-04-19T19:35:33.709Z,54.66
2023-04-19T19:38:01.657Z,55.28
2023-04-19T19:40:32.468Z,55.41
2023-04-19T19:43:01.781Z,56.63
2023-04-19T19:45:29.844Z,57.33
2023-04-19T19:48:00.114Z,58.07
2023-04-19T19:53:01.914Z,57.69
2023-04-19T19:55:30.186Z,57.71
2023-04-19T20:03:00.602Z,58.55
2023-04-19T20:05:30.185Z,58.68
2023-04-19T20:08:08.586Z,58.17
2023-04-19T20:10:40.957Z,59.64
2023-04-19T20:13:09.320Z,58.83
2023-04-19T20:15:38.812Z,58.73
2023-04-19T20:18:08.162Z,58.90
2023-04-19T20:20:38.362Z,58.79
2023-04-19T20:23:06.869Z,59.60
2023-04-19T20:25:34.986Z,58.90
2023-04-19T20:28:03.659Z,56.84
2023-04-19T20:30:31.523Z,57.27
2023-04-19T20:33:00.055Z,55.80
2023-04-19T20:35:28.388Z,56.51
2023-04-19T20:38:02.381Z,56.79
2023-04-19T20:40:32.128Z,57.48
2023-04-19T20:43:00.052Z,57.76
2023-04-19T20:45:28.338Z,58.54
2023-04-19T20:47:56.188Z,58.11
2023-04-19T20:50:24.219Z,58.64
2023-04-19T20:52:52.382Z,58.33
2023-04-19T20:55:21.694Z,59.34
2023-04-19T20:57:49.646Z,57.96
2023-04-19T21:00:18.559Z,57.66
2023-04-19T21:02:46.374Z,59.06
2023-04-19T21:05:14.259Z,57.94
2023-04-19T21:07:41.987Z,58.13
2023-04-19T21:10:11.496Z,58.74
2023-04-19T21:12:40.814Z,57.98
2023-04-19T21:15:09.203Z,57.76
2023-04-19T21:17:36.943Z,57.52
2023-04-19T21:20:11.994Z,58.19
2023-04-19T21:22:40.217Z,57.68
2023-04-19T21:25:09.290Z,58.24
2023-04-19T21:27:37.494Z,59.52
2023-04-19T21:30:08.787Z,59.87
2023-04-19T21:32:36.517Z,59.40
2023-04-19T21:35:04.434Z,59.10
2023-04-19T21:37:32.524Z,59.76
2023-04-19T21:40:00.646Z,59.47
2023-04-19T21:42:28.651Z,61.18
2023-04-19T21:44:56.552Z,60.05
2023-04-19T21:47:25.979Z,61.27
2023-04-19T21:49:54.156Z,60.21
2023-04-19T21:52:22.621Z,61.60
2023-04-19T21:54:50.288Z,61.23
2023-04-19T21:57:21.921Z,62.04
2023-04-19T21:59:49.826Z,62.08
2023-04-19T22:02:18.226Z,62.52
2023-04-19T22:04:47.325Z,61.49
2023-04-19T22:07:18.655Z,62.63
2023-04-19T22:09:46.502Z,62.55
2023-04-19T22:12:14.464Z,62.38
2023-04-19T22:14:42.066Z,62.78
2023-04-19T22:17:10.289Z,63.29
2023-04-19T22:19:39.376Z,62.63
2023-04-19T22:22:08.449Z,61.80
2023-04-19T22:24:43.947Z,62.53
2023-04-19T22:27:21.291Z,61.94
2023-04-19T22:29:49.245Z,62.05
2023-04-19T22:32:17.085Z,61.62
2023-04-19T22:34:45.021Z,62.02
2023-04-19T22:37:14.324Z,62.47
2023-04-19T22:39:42.039Z,63.24
2023-04-19T22:42:10.086Z,63.14
2023-04-19T22:44:38.045Z,63.52
2023-04-19T22:47:05.930Z,64.28
2023-04-19T22:49:33.924Z,63.94
2023-04-19T22:52:01.747Z,64.68
2023-04-19T22:54:31.164Z,64.70
2023-04-19T22:56:59.005Z,64.38
2023-04-19T22:59:26.921Z,64.64
2023-04-19T23:01:54.961Z,64.34
2023-04-19T23:04:24.071Z,64.76
2023-04-19T23:06:52.468Z,64.14
2023-04-19T23:09:20.170Z,64.82
2023-04-19T23:11:49.591Z,64.76
2023-04-19T23:14:18.342Z,64.14
2023-04-19T23:16:46.300Z,64.89
2023-04-19T23:19:15.676Z,65.09
2023-04-19T23:21:43.528Z,64.90
2023-04-19T23:24:11.562Z,66.19
2023-04-19T23:26:39.363Z,66.16
2023-04-19T23:29:08.632Z,65.87
2023-04-19T23:31:36.883Z,66.96
2023-04-19T23:34:04.821Z,66.65
2023-04-19T23:36:32.585Z,65.70
2023-04-19T23:39:00.578Z,67.24
2023-04-19T23:41:28.346Z,67.10
2023-04-19T23:43:56.051Z,66.68
2023-04-19T23:46:25.439Z,67.58
2023-04-19T23:48:53.294Z,67.23
2023-04-19T23:51:21.096Z,67.69
2023-04-19T23:53:49.505Z,67.65
2023-04-19T23:56:17.120Z,67.98
2023-04-19T23:58:45.084Z,68.68
